Time;durP1;ratioP1;P1;durP2;ratioP2;P2;SDS_P1;SDS_P2;PMS_P1;PMS_P2;Temp;Humidity;BMP_temperature;BMP_pressure;BME280_temperature;BME280_humidity;BME280_pressure;Samples;Min_cycle;Max_cycle;Signal;HPM_P1;HPM_P2
2021/10/25 00:00:27;;;;;;;19.73;17.93;;;4.90;99.90;;;;;;4914364;29;20223;-76
2021/10/25 00:02:56;;;;;;;20.37;18.67;;;4.80;99.90;;;;;;4915654;29;20238;-76
2021/10/25 00:05:24;;;;;;;21.27;19.27;;;4.80;99.90;;;;;;4915491;29;20200;-76
2021/10/25 00:07:53;;;;;;;20.33;18.60;;;4.70;99.90;;;;;;4906434;29;20636;-76
2021/10/25 00:10:20;;;;;;;19.73;18.13;;;4.60;99.90;;;;;;4914072;29;20651;-75
2021/10/25 00:12:47;;;;;;;19.93;18.33;;;4.60;99.90;;;;;;4915635;29;20208;-76
2021/10/25 00:15:14;;;;;;;19.20;17.70;;;4.50;99.90;;;;;;4914321;29;20212;-76
2021/10/25 00:17:41;;;;;;;19.70;18.10;;;4.50;99.90;;;;;;4915256;29;20224;-76
2021/10/25 00:20:11;;;;;;;20.63;18.73;;;4.40;99.90;;;;;;4915138;29;20224;-76
2021/10/25 00:22:38;;;;;;;21.03;19.23;;;4.40;99.90;;;;;;4914367;29;20196;-76
2021/10/25 00:25:08;;;;;;;21.57;19.60;;;4.40;99.90;;;;;;4915541;29;20735;-76
2021/10/25 00:27:35;;;;;;;20.40;18.70;;;4.40;99.90;;;;;;4913950;29;20200;-76
2021/10/25 00:30:03;;;;;;;22.57;20.53;;;4.40;99.90;;;;;;4913787;29;20734;-76
2021/10/25 00:32:30;;;;;;;20.57;18.87;;;4.40;99.90;;;;;;4915275;29;20196;-76
2021/10/25 00:34:57;;;;;;;20.60;18.87;;;4.40;99.90;;;;;;4913839;29;20639;-76
2021/10/25 00:37:24;;;;;;;21.63;19.47;;;4.40;99.90;;;;;;4915008;29;20232;-76
2021/10/25 00:39:51;;;;;;;22.17;20.07;;;4.30;99.90;;;;;;4914666;29;20218;-75
2021/10/25 00:42:19;;;;;;;20.93;19.23;;;4.30;99.90;;;;;;4913998;29;20342;-76
2021/10/25 00:44:46;;;;;;;21.30;19.50;;;4.30;99.90;;;;;;4913820;29;20524;-76
2021/10/25 00:47:12;;;;;;;20.80;19.00;;;4.20;99.90;;;;;;4913980;29;20204;-76
2021/10/25 00:49:40;;;;;;;20.63;18.83;;;4.20;99.90;;;;;;4913260;29;20601;-76
2021/10/25 00:52:07;;;;;;;20.37;18.77;;;4.20;99.90;;;;;;4913994;29;20275;-76
2021/10/25 00:54:35;;;;;;;20.30;18.63;;;4.10;99.90;;;;;;4913781;29;20260;-76
2021/10/25 00:57:03;;;;;;;20.03;18.33;;;4.00;99.90;;;;;;4913848;29;20226;-76
2021/10/25 00:59:32;;;;;;;20.43;18.53;;;4.00;99.90;;;;;;4915207;29;20230;-77
2021/10/25 01:01:59;;;;;;;21.07;19.37;;;4.00;99.90;;;;;;4918635;29;20227;-76
2021/10/25 01:04:27;;;;;;;20.90;19.10;;;4.10;99.90;;;;;;4917738;29;20203;-76
2021/10/25 01:06:55;;;;;;;20.07;18.43;;;4.10;99.90;;;;;;4917411;29;20662;-76
2021/10/25 01:09:23;;;;;;;20.67;18.97;;;4.00;99.90;;;;;;4918568;29;20223;-76
2021/10/25 01:11:50;;;;;;;20.97;19.17;;;4.10;99.90;;;;;;4917524;29;20620;-75
2021/10/25 01:14:18;;;;;;;21.87;19.87;;;4.10;99.90;;;;;;4918734;29;20204;-76
2021/10/25 01:16:46;;;;;;;21.17;19.27;;;4.10;99.90;;;;;;4917155;29;20546;-76
2021/10/25 01:19:16;;;;;;;21.13;19.40;;;4.10;99.90;;;;;;4916965;29;20255;-76
2021/10/25 01:21:44;;;;;;;19.63;18.13;;;4.10;99.90;;;;;;4917170;29;20208;-76
2021/10/25 01:24:11;;;;;;;21.13;19.23;;;4.10;99.90;;;;;;4917200;29;20452;-76
2021/10/25 01:26:38;;;;;;;19.90;18.30;;;4.10;99.90;;;;;;4917221;29;20203;-76
2021/10/25 01:29:07;;;;;;;21.10;19.30;;;4.10;99.90;;;;;;4916668;29;20287;-76
2021/10/25 01:31:34;;;;;;;19.83;18.23;;;4.10;99.90;;;;;;4916955;29;20208;-76
2021/10/25 01:34:02;;;;;;;20.43;18.63;;;4.10;99.90;;;;;;4916949;29;20237;-76
2021/10/25 01:36:33;;;;;;;19.43;17.93;;;4.20;99.90;;;;;;4916850;29;20283;-76
2021/10/25 01:39:02;;;;;;;19.50;17.90;;;4.10;99.90;;;;;;4916583;29;20523;-76
2021/10/25 01:41:29;;;;;;;20.50;18.80;;;4.10;99.90;;;;;;4918041;29;20215;-76
2021/10/25 01:43:59;;;;;;;20.43;18.80;;;4.10;99.90;;;;;;4917761;29;20563;-77
2021/10/25 01:46:26;;;;;;;19.20;17.70;;;4.10;99.90;;;;;;4918137;29;20448;-77
2021/10/25 01:48:53;;;;;;;20.37;18.47;;;4.10;99.90;;;;;;4919251;29;20709;-76
2021/10/25 01:51:20;;;;;;;20.13;18.43;;;4.10;99.90;;;;;;4918209;29;20199;-77
2021/10/25 01:53:47;;;;;;;19.43;17.93;;;4.10;99.90;;;;;;4917972;29;20243;-76
2021/10/25 01:56:16;;;;;;;20.70;18.73;;;4.10;99.90;;;;;;4917715;29;20611;-77
2021/10/25 01:58:44;;;;;;;19.40;17.73;;;4.10;99.90;;;;;;4917887;29;20277;-77
2021/10/25 02:01:16;;;;;;;19.40;17.90;;;4.00;99.90;;;;;;4918230;29;20204;-76
2021/10/25 02:03:43;;;;;;;19.20;17.50;;;4.00;99.90;;;;;;4917895;29;20696;-77
2021/10/25 02:06:20;;;;;;;18.50;16.90;;;4.00;99.90;;;;;;4918199;29;20563;-77
2021/10/25 02:08:48;;;;;;;19.37;17.77;;;3.90;99.90;;;;;;4917069;29;20664;-77
2021/10/25 02:11:19;;;;;;;20.03;18.40;;;3.90;99.90;;;;;;4916984;29;20984;-77
2021/10/25 02:13:56;;;;;;;19.10;17.53;;;3.80;99.90;;;;;;4910809;29;20548;-77
2021/10/25 02:16:25;;;;;;;20.93;19.07;;;3.80;99.90;;;;;;4917767;29;20478;-76
2021/10/25 02:18:52;;;;;;;19.83;18.23;;;3.70;99.90;;;;;;4916986;29;20215;-77
2021/10/25 02:21:25;;;;;;;19.30;17.67;;;3.70;99.90;;;;;;4917654;29;20440;-77
2021/10/25 02:23:52;;;;;;;19.87;18.20;;;3.70;99.90;;;;;;4917663;29;20210;-77
2021/10/25 02:26:20;;;;;;;19.93;18.33;;;3.60;99.90;;;;;;4917564;29;20208;-77
2021/10/25 02:28:47;;;;;;;19.37;17.67;;;3.60;99.90;;;;;;4917577;29;20709;-76
2021/10/25 02:31:14;;;;;;;18.67;17.17;;;3.50;99.90;;;;;;4916953;29;20487;-77
2021/10/25 02:33:42;;;;;;;19.40;17.83;;;3.50;99.90;;;;;;4916950;29;20207;-76
2021/10/25 02:36:10;;;;;;;20.23;18.43;;;3.50;99.90;;;;;;4916160;29;20456;-76
2021/10/25 02:38:42;;;;;;;19.97;18.27;;;3.50;99.90;;;;;;4916039;29;20743;-76
2021/10/25 02:41:11;;;;;;;21.00;19.10;;;3.50;99.90;;;;;;4916044;29;20287;-77
2021/10/25 02:43:40;;;;;;;21.27;19.10;;;3.50;99.90;;;;;;4911359;29;20456;-79
2021/10/25 02:46:07;;;;;;;20.70;18.90;;;3.50;99.90;;;;;;4926763;29;20226;-79
2021/10/25 02:48:37;;;;;;;20.07;18.43;;;3.50;99.90;;;;;;4924020;29;20551;-77
2021/10/25 02:51:06;;;;;;;20.90;19.17;;;3.50;99.90;;;;;;4918306;29;20199;-81
2021/10/25 02:53:33;;;;;;;19.97;17.93;;;3.50;99.90;;;;;;4918916;29;20210;-76
2021/10/25 02:56:00;;;;;;;20.43;18.53;;;3.50;99.90;;;;;;4914054;29;20942;-77
2021/10/25 02:58:27;;;;;;;19.77;17.97;;;3.50;99.90;;;;;;4919855;29;20234;-77
2021/10/25 03:00:57;;;;;;;20.73;18.47;;;3.40;99.90;;;;;;4922665;29;20460;-77
2021/10/25 03:03:24;;;;;;;20.80;18.90;;;3.40;99.90;;;;;;4919692;29;20538;-77
2021/10/25 03:05:51;;;;;;;19.90;18.20;;;3.40;99.90;;;;;;4917567;29;20804;-78
2021/10/25 03:08:19;;;;;;;19.60;18.03;;;3.40;99.90;;;;;;4933275;29;20482;-77
2021/10/25 03:10:46;;;;;;;19.87;18.17;;;3.40;99.90;;;;;;4917821;29;20451;-77
2021/10/25 03:13:14;;;;;;;19.57;17.73;;;3.40;99.90;;;;;;4916919;29;20235;-77
2021/10/25 03:15:41;;;;;;;18.43;16.87;;;3.50;99.90;;;;;;4923529;29;20466;-78
2021/10/25 03:18:13;;;;;;;19.67;18.17;;;3.50;99.90;;;;;;4919646;29;20519;-77
2021/10/25 03:20:41;;;;;;;20.70;18.83;;;3.50;99.90;;;;;;4925856;29;20654;-77
2021/10/25 03:23:09;;;;;;;19.50;17.80;;;3.40;99.90;;;;;;4925719;29;21031;-76
2021/10/25 03:25:35;;;;;;;18.70;17.10;;;3.40;99.90;;;;;;4931643;29;20468;-77
2021/10/25 03:28:03;;;;;;;20.80;18.90;;;3.30;99.90;;;;;;4933388;28;20535;-76
2021/10/25 03:30:33;;;;;;;21.13;19.33;;;3.30;99.90;;;;;;4912665;29;20287;-76
2021/10/25 03:33:04;;;;;;;20.50;18.70;;;3.30;99.90;;;;;;4916684;29;20972;-76
2021/10/25 03:36:02;;;;;;;21.83;19.60;;;3.20;99.90;;;;;;4904680;29;20458;-76
2021/10/25 03:38:29;;;;;;;20.23;18.50;;;3.20;99.90;;;;;;4915980;29;20486;-76
2021/10/25 03:40:57;;;;;;;22.43;20.33;;;3.10;99.90;;;;;;4916249;29;20455;-76
2021/10/25 03:43:28;;;;;;;21.77;19.97;;;3.10;99.90;;;;;;4916054;29;20458;-76
2021/10/25 03:46:04;;;;;;;21.60;19.60;;;3.00;99.90;;;;;;4916498;29;20788;-77
2021/10/25 03:48:37;;;;;;;20.20;18.37;;;3.00;99.90;;;;;;4918176;29;20563;-77
2021/10/25 03:51:07;;;;;;;20.40;18.70;;;3.00;99.90;;;;;;4917008;29;20444;-77
2021/10/25 03:53:37;;;;;;;20.47;18.60;;;3.00;99.90;;;;;;4915775;29;20200;-77
2021/10/25 03:56:09;;;;;;;20.13;18.27;;;3.00;99.90;;;;;;4915939;29;20444;-77
2021/10/25 03:58:57;;;;;;;20.37;18.57;;;2.90;99.90;;;;;;4916473;29;20480;-77
2021/10/25 04:04:32;;;;;;;18.87;17.27;;;2.90;99.90;;;;;;4915657;29;20436;-77
2021/10/25 04:13:17;;;;;;;19.90;18.10;;;2.90;99.90;;;;;;4915622;29;20447;-76
2021/10/25 04:27:30;;;;;;;19.37;17.77;;;2.80;99.90;;;;;;4915483;29;20438;-76
2021/10/25 04:30:02;;;;;;;19.83;18.03;;;2.80;99.90;;;;;;4915254;29;20464;-76
2021/10/25 04:32:31;;;;;;;20.07;18.37;;;2.80;99.90;;;;;;4915412;29;20450;-77
2021/10/25 04:35:01;;;;;;;20.20;18.37;;;2.80;99.90;;;;;;4917933;29;20460;-76
2021/10/25 04:37:48;;;;;;;20.03;18.33;;;2.90;99.90;;;;;;4920703;29;20497;-77
2021/10/25 04:40:18;;;;;;;19.80;18.20;;;2.90;99.90;;;;;;4919152;29;20559;-77
2021/10/25 04:42:45;;;;;;;18.63;17.13;;;2.90;99.90;;;;;;4918774;29;20467;-77
2021/10/25 04:45:13;;;;;;;19.37;17.67;;;2.90;99.90;;;;;;4919396;29;20447;-76
2021/10/25 04:47:42;;;;;;;19.03;17.43;;;2.90;99.90;;;;;;4919221;29;20453;-77
2021/10/25 04:50:29;;;;;;;20.33;18.57;;;3.00;99.90;;;;;;4920386;29;20536;-77
2021/10/25 04:53:10;;;;;;;19.90;18.20;;;3.00;99.90;;;;;;4918997;29;20462;-77
2021/10/25 04:55:39;;;;;;;19.00;17.37;;;3.00;99.90;;;;;;4919010;29;20447;-77
2021/10/25 04:58:06;;;;;;;20.40;18.60;;;3.00;99.90;;;;;;4912875;29;20475;-77
2021/10/25 05:00:32;;;;;;;19.17;17.67;;;3.10;99.90;;;;;;4920117;29;20496;-76
2021/10/25 05:03:00;;;;;;;19.50;17.60;;;3.10;99.90;;;;;;4918648;29;20459;-77
2021/10/25 05:05:28;;;;;;;20.57;18.87;;;3.10;99.90;;;;;;4917425;29;20460;-77
2021/10/25 05:07:54;;;;;;;18.37;16.87;;;3.10;99.90;;;;;;4919967;29;20798;-77
2021/10/25 05:10:23;;;;;;;19.17;17.53;;;3.10;99.90;;;;;;4918697;29;20846;-77
2021/10/25 05:12:50;;;;;;;19.23;17.57;;;3.10;99.90;;;;;;4911004;29;20455;-77
2021/10/25 05:15:17;;;;;;;19.10;17.60;;;3.10;99.90;;;;;;4918160;29;20976;-78
2021/10/25 05:17:44;;;;;;;21.43;19.47;;;3.10;99.90;;;;;;4918036;29;20484;-76
2021/10/25 05:20:12;;;;;;;19.83;18.33;;;3.00;99.90;;;;;;4918476;29;20475;-76
2021/10/25 05:22:49;;;;;;;20.17;18.33;;;3.00;99.90;;;;;;4918245;29;20298;-76
2021/10/25 05:25:16;;;;;;;20.17;18.43;;;3.00;99.90;;;;;;4918009;29;20460;-77
2021/10/25 05:27:45;;;;;;;20.37;18.67;;;3.00;99.90;;;;;;4917547;29;20981;-77
2021/10/25 05:30:12;;;;;;;19.33;17.73;;;3.00;99.90;;;;;;4917507;29;20531;-77
2021/10/25 05:32:39;;;;;;;19.30;17.80;;;3.00;99.90;;;;;;4917343;29;20456;-78
2021/10/25 05:35:06;;;;;;;19.43;18.03;;;3.00;99.90;;;;;;4917744;29;20819;-76
2021/10/25 05:37:33;;;;;;;20.37;18.57;;;3.00;99.90;;;;;;4918714;29;20531;-76
2021/10/25 05:40:00;;;;;;;20.37;18.67;;;3.00;99.90;;;;;;4918001;29;20476;-76
2021/10/25 05:42:38;;;;;;;19.97;18.37;;;3.00;99.90;;;;;;4917989;29;20836;-76
2021/10/25 05:45:07;;;;;;;19.97;18.37;;;3.00;99.90;;;;;;4918969;29;20210;-77
2021/10/25 05:47:33;;;;;;;20.13;18.33;;;3.10;99.90;;;;;;4918142;29;20463;-76
2021/10/25 05:50:03;;;;;;;19.87;18.37;;;3.10;99.90;;;;;;4918007;29;21001;-76
2021/10/25 05:52:30;;;;;;;20.03;18.43;;;3.20;99.90;;;;;;4917456;29;20447;-77
2021/10/25 05:54:57;;;;;;;19.63;18.20;;;3.20;99.90;;;;;;4917728;29;20554;-77
2021/10/25 05:57:24;;;;;;;19.30;17.90;;;3.20;99.90;;;;;;4918606;29;20543;-77
2021/10/25 05:59:51;;;;;;;19.90;18.20;;;3.20;99.90;;;;;;4909122;29;20559;-77
2021/10/25 06:02:25;;;;;;;19.10;17.57;;;3.20;99.90;;;;;;4917599;29;20224;-77
2021/10/25 06:05:07;;;;;;;18.90;17.43;;;3.20;99.90;;;;;;4911916;29;20448;-77
2021/10/25 06:07:40;;;;;;;19.30;17.87;;;3.20;99.90;;;;;;4917326;29;20993;-77
2021/10/25 06:10:11;;;;;;;18.93;17.43;;;3.20;99.90;;;;;;4917290;29;20460;-77
2021/10/25 06:12:46;;;;;;;18.67;17.27;;;3.20;99.90;;;;;;4917475;29;20531;-76
2021/10/25 06:15:19;;;;;;;19.03;17.57;;;3.20;99.90;;;;;;4917428;29;20294;-77
2021/10/25 06:17:55;;;;;;;19.60;17.93;;;3.20;99.90;;;;;;4917027;29;21092;-76
2021/10/25 06:20:25;;;;;;;18.13;16.83;;;3.20;99.90;;;;;;4917247;29;20474;-76
2021/10/25 06:22:53;;;;;;;18.40;17.10;;;3.30;99.90;;;;;;4909878;29;20474;-76
2021/10/25 06:25:23;;;;;;;19.57;18.07;;;3.30;99.90;;;;;;4917276;29;20451;-77
2021/10/25 06:28:09;;;;;;;19.60;17.97;;;3.30;99.90;;;;;;4911864;29;20830;-77
2021/10/25 06:30:39;;;;;;;19.07;17.37;;;3.40;99.90;;;;;;4917262;29;20458;-77
2021/10/25 06:33:08;;;;;;;17.83;16.50;;;3.40;99.90;;;;;;4916930;29;20460;-77
2021/10/25 06:36:02;;;;;;;18.90;17.40;;;3.40;99.90;;;;;;4910271;29;20448;-77
2021/10/25 06:39:12;;;;;;;19.67;17.83;;;3.50;99.90;;;;;;4911988;29;20485;-77
2021/10/25 06:41:45;;;;;;;18.47;17.07;;;3.50;99.90;;;;;;4917106;29;20674;-77
2021/10/25 06:44:20;;;;;;;18.30;17.00;;;3.50;99.90;;;;;;4913191;29;20973;-77
2021/10/25 06:46:48;;;;;;;17.73;16.40;;;3.50;99.90;;;;;;4917155;29;20463;-77
2021/10/25 06:49:22;;;;;;;18.80;17.07;;;3.50;99.90;;;;;;4916927;29;20899;-77
2021/10/25 06:51:49;;;;;;;17.70;16.30;;;3.40;99.90;;;;;;4916737;29;20452;-77
2021/10/25 06:54:19;;;;;;;17.97;16.47;;;3.40;99.90;;;;;;4916499;29;20546;-77
2021/10/25 06:56:46;;;;;;;17.43;16.13;;;3.40;99.90;;;;;;4916085;29;20451;-77
2021/10/25 06:59:12;;;;;;;17.93;16.63;;;3.50;99.90;;;;;;4916743;29;20646;-77
2021/10/25 07:01:43;;;;;;;18.23;16.93;;;3.50;99.90;;;;;;4916913;29;20456;-77
2021/10/25 07:04:10;;;;;;;18.90;17.60;;;3.50;99.90;;;;;;4917132;29;20215;-77
2021/10/25 07:06:40;;;;;;;18.90;17.40;;;3.60;99.90;;;;;;4916630;29;21035;-77
2021/10/25 07:09:07;;;;;;;18.97;17.37;;;3.70;99.90;;;;;;4916133;29;21008;-77
2021/10/25 07:11:35;;;;;;;18.47;17.07;;;3.80;99.90;;;;;;4916238;29;20468;-77
2021/10/25 07:14:06;;;;;;;18.17;16.87;;;4.00;99.90;;;;;;4916112;29;20875;-77
2021/10/25 07:16:37;;;;;;;18.03;16.63;;;4.10;99.90;;;;;;4916299;29;20293;-77
2021/10/25 07:19:28;;;;;;;18.30;16.80;;;4.30;99.90;;;;;;4916527;29;20715;-77
2021/10/25 07:59:56;;;;;;;12.30;11.20;;;8.50;99.90;;;;;;4916199;29;20223;-77
2021/10/25 08:08:06;;;;;;;11.70;10.60;;;8.30;99.90;;;;;;4909481;29;20218;-77
2021/10/25 08:10:57;;;;;;;9.30;8.57;;;8.40;99.90;;;;;;4908943;29;20200;-77
2021/10/25 08:13:29;;;;;;;8.17;7.47;;;8.50;99.90;;;;;;4916253;29;20200;-77
2021/10/25 08:15:57;;;;;;;9.90;9.00;;;8.50;99.90;;;;;;4915997;29;20211;-77
2021/10/25 08:18:37;;;;;;;11.13;10.23;;;8.60;99.90;;;;;;4915669;29;20226;-77
2021/10/25 08:21:04;;;;;;;11.83;10.73;;;8.50;99.90;;;;;;4910317;29;20576;-77
2021/10/25 08:23:32;;;;;;;11.87;10.93;;;8.50;99.90;;;;;;4916026;29;20200;-77
2021/10/25 08:26:09;;;;;;;12.80;11.80;;;8.60;99.90;;;;;;4916477;29;20203;-77
2021/10/25 08:28:38;;;;;;;9.57;8.77;;;8.70;99.90;;;;;;4916020;29;20291;-77
2021/10/25 08:31:06;;;;;;;11.63;10.63;;;8.80;99.90;;;;;;4915886;29;20210;-77
2021/10/25 08:42:13;;;;;;;12.53;11.43;;;9.00;99.90;;;;;;5088688;28;20675;-76
2021/10/25 08:44:42;;;;;;;11.97;10.97;;;9.10;99.90;;;;;;5095571;28;20182;-76
2021/10/25 08:47:10;;;;;;;12.50;11.47;;;9.00;99.90;;;;;;5096173;28;20293;-76
2021/10/25 08:49:38;;;;;;;12.17;11.07;;;9.00;99.90;;;;;;5098192;28;20216;-76
2021/10/25 08:52:06;;;;;;;10.50;9.60;;;9.00;99.90;;;;;;5092199;28;20213;-76
2021/10/25 08:54:36;;;;;;;12.30;11.30;;;9.00;99.90;;;;;;5099956;28;20212;-76
2021/10/25 08:57:03;;;;;;;12.00;11.00;;;8.90;99.90;;;;;;5096592;28;20299;-76
2021/10/25 08:59:34;;;;;;;10.33;9.53;;;9.00;99.90;;;;;;5097888;28;20282;-76
2021/10/25 09:02:06;;;;;;;10.83;9.73;;;9.10;99.90;;;;;;5096152;28;20274;-77
2021/10/25 09:05:01;;;;;;;11.23;10.23;;;9.00;99.90;;;;;;5093334;28;20189;-76
2021/10/25 09:07:30;;;;;;;9.90;9.00;;;9.10;99.90;;;;;;5093194;28;20248;-77
2021/10/25 09:09:57;;;;;;;10.37;9.47;;;9.10;99.90;;;;;;5095645;28;20298;-76
2021/10/25 09:12:31;;;;;;;10.03;9.20;;;9.20;99.90;;;;;;5095396;28;20197;-77
2021/10/25 09:14:58;;;;;;;8.97;8.17;;;9.30;99.90;;;;;;5095114;28;20697;-76
2021/10/25 09:17:27;;;;;;;8.47;7.67;;;9.40;99.90;;;;;;5095583;28;20189;-77
2021/10/25 09:20:11;;;;;;;7.77;6.97;;;9.40;99.90;;;;;;5093251;28;20693;-76
2021/10/25 09:22:39;;;;;;;7.00;6.13;;;9.40;99.90;;;;;;5096681;28;20229;-77
2021/10/25 09:25:09;;;;;;;7.80;6.43;;;9.40;99.90;;;;;;5097587;28;20196;-76
2021/10/25 09:27:46;;;;;;;8.20;7.40;;;9.50;99.90;;;;;;5093684;28;20209;-76
2021/10/25 09:30:25;;;;;;;9.30;8.50;;;9.50;99.90;;;;;;5093503;28;20258;-76
2021/10/25 09:33:06;;;;;;;9.47;8.57;;;9.50;99.90;;;;;;5103343;28;20190;-76
2021/10/25 09:35:42;;;;;;;9.40;8.60;;;9.50;99.90;;;;;;5096958;28;20702;-77
2021/10/25 09:38:23;;;;;;;9.70;8.87;;;9.40;99.90;;;;;;5094826;28;20210;-76
2021/10/25 09:41:16;;;;;;;10.17;9.37;;;9.50;99.90;;;;;;5094032;28;20895;-76
2021/10/25 09:49:17;;;;;;;11.60;10.60;;;9.80;99.90;;;;;;5079944;28;20600;-76
2021/10/25 09:51:52;;;;;;;10.90;10.00;;;9.90;99.90;;;;;;5085155;28;20554;-76
2021/10/25 09:54:23;;;;;;;10.67;9.77;;;9.90;99.90;;;;;;5084208;28;20280;-76
2021/10/25 09:57:03;;;;;;;10.70;9.90;;;10.00;99.90;;;;;;5071744;28;20623;-76
2021/10/25 09:59:59;;;;;;;9.93;9.23;;;10.20;99.90;;;;;;5071847;28;20217;-76
2021/10/25 10:02:41;;;;;;;8.43;7.63;;;10.30;99.90;;;;;;5079066;28;20460;-76
2021/10/25 10:05:11;;;;;;;5.17;4.67;;;10.40;99.90;;;;;;5078540;28;20630;-76
2021/10/25 10:07:39;;;;;;;5.83;4.33;;;10.40;99.90;;;;;;5082645;28;20199;-76
2021/10/25 10:10:19;;;;;;;5.47;4.73;;;10.30;99.90;;;;;;5081036;28;20218;-76
2021/10/25 10:12:53;;;;;;;4.87;4.13;;;10.30;99.90;;;;;;5072869;28;20285;-76
2021/10/25 10:15:27;;;;;;;4.97;4.47;;;10.30;99.90;;;;;;5080858;28;20687;-76
2021/10/25 10:18:00;;;;;;;9.63;8.83;;;10.30;99.90;;;;;;5082512;28;20222;-76
2021/10/25 10:20:36;;;;;;;6.30;5.70;;;10.40;99.90;;;;;;5083364;28;20291;-76
2021/10/25 10:23:07;;;;;;;6.10;5.50;;;10.50;99.90;;;;;;5079505;28;20194;-76
2021/10/25 10:25:47;;;;;;;5.57;5.00;;;10.70;99.90;;;;;;5077340;28;20199;-77
2021/10/25 10:28:19;;;;;;;8.90;8.10;;;10.90;99.90;;;;;;5077485;28;20277;-76
2021/10/25 10:30:55;;;;;;;8.93;8.13;;;11.10;99.90;;;;;;5080894;28;20198;-77
2021/10/25 10:33:34;;;;;;;7.20;6.50;;;11.10;99.90;;;;;;5080499;28;20199;-77
2021/10/25 10:36:17;;;;;;;9.03;8.23;;;11.30;99.90;;;;;;5107487;27;20248;-76
2021/10/25 10:38:54;;;;;;;7.00;6.27;;;11.50;99.90;;;;;;5072062;28;20215;-77
2021/10/25 10:41:39;;;;;;;8.50;7.80;;;11.60;99.90;;;;;;5082207;28;20227;-76
2021/10/25 10:44:19;;;;;;;8.97;8.03;;;11.60;99.90;;;;;;5080630;28;20195;-77
2021/10/25 10:46:51;;;;;;;11.20;10.20;;;11.60;99.90;;;;;;5076521;28;20225;-77
2021/10/25 10:49:21;;;;;;;10.17;9.37;;;11.60;99.90;;;;;;5077535;28;20216;-77
2021/10/25 10:52:11;;;;;;;10.27;9.27;;;11.70;99.90;;;;;;5083303;28;20211;-77
2021/10/25 10:54:51;;;;;;;11.23;10.23;;;11.80;99.90;;;;;;5076640;28;20209;-77
2021/10/25 10:57:42;;;;;;;10.60;9.80;;;11.90;99.90;;;;;;5081743;28;20194;-77
2021/10/25 11:00:10;;;;;;;8.90;8.00;;;11.90;99.90;;;;;;5073584;28;20758;-76
2021/10/25 11:02:38;;;;;;;8.50;7.63;;;11.90;99.90;;;;;;5080637;28;20197;-77
2021/10/25 11:05:08;;;;;;;8.77;7.93;;;11.90;99.90;;;;;;5079860;28;20640;-76
2021/10/25 11:07:39;;;;;;;8.80;7.90;;;11.90;99.90;;;;;;5080150;28;20200;-77
2021/10/25 11:10:09;;;;;;;9.20;8.40;;;11.90;99.90;;;;;;5079175;28;20610;-77
2021/10/25 11:12:44;;;;;;;8.43;7.73;;;11.90;99.90;;;;;;5082367;28;20191;-77
2021/10/25 11:15:14;;;;;;;9.73;8.83;;;12.00;99.90;;;;;;5078142;28;20565;-77
2021/10/25 11:17:42;;;;;;;9.67;8.87;;;11.80;99.90;;;;;;5076904;28;20205;-77
2021/10/25 11:20:11;;;;;;;12.63;11.73;;;11.80;99.90;;;;;;5077698;28;20216;-77
2021/10/25 11:22:39;;;;;;;15.07;13.87;;;11.80;99.90;;;;;;5081485;28;20187;-77
2021/10/25 11:25:10;;;;;;;11.80;10.90;;;11.80;99.90;;;;;;5080841;28;20189;-77
2021/10/25 11:27:40;;;;;;;13.63;12.73;;;11.70;99.90;;;;;;5079529;28;20298;-76
2021/10/25 11:30:13;;;;;;;13.57;12.63;;;11.60;99.90;;;;;;5080200;28;20693;-77
2021/10/25 11:32:41;;;;;;;13.80;12.90;;;11.60;99.90;;;;;;5084870;28;20374;-77
2021/10/25 11:35:12;;;;;;;13.70;12.60;;;11.60;99.90;;;;;;5080697;28;20550;-76
2021/10/25 11:37:41;;;;;;;12.53;11.63;;;11.60;99.90;;;;;;5077228;28;20219;-76
2021/10/25 11:40:11;;;;;;;13.47;12.40;;;11.70;99.90;;;;;;5079371;28;20310;-77
2021/10/25 11:42:42;;;;;;;12.13;11.23;;;11.70;99.90;;;;;;5082183;28;20193;-77
2021/10/25 11:45:11;;;;;;;12.70;11.80;;;11.70;99.90;;;;;;5079062;28;20687;-77
2021/10/25 11:47:41;;;;;;;12.93;11.90;;;11.90;99.90;;;;;;5081729;28;20573;-77
2021/10/25 11:50:13;;;;;;;12.60;11.80;;;11.90;99.90;;;;;;5086045;28;20217;-77
2021/10/25 11:52:42;;;;;;;12.80;11.90;;;12.00;99.90;;;;;;5082463;28;20271;-76
2021/10/25 11:55:11;;;;;;;12.70;11.60;;;12.10;99.90;;;;;;5083507;28;20279;-75
2021/10/25 11:57:46;;;;;;;12.10;11.30;;;12.10;99.90;;;;;;5078664;28;20223;-76
2021/10/25 12:00:14;;;;;;;12.13;11.33;;;12.10;99.90;;;;;;5084808;28;20296;-76
2021/10/25 12:02:45;;;;;;;11.57;10.70;;;12.00;99.90;;;;;;5090078;28;20193;-77
2021/10/25 12:05:12;;;;;;;11.53;10.73;;;12.00;99.90;;;;;;5091469;28;20646;-78
2021/10/25 12:07:49;;;;;;;10.63;9.93;;;11.90;99.90;;;;;;5087315;28;20568;-77
2021/10/25 12:10:17;;;;;;;10.90;10.20;;;11.90;99.90;;;;;;5078811;28;20405;-77
2021/10/25 12:12:45;;;;;;;10.90;10.20;;;12.00;99.90;;;;;;5114999;27;20287;-76
2021/10/25 12:15:16;;;;;;;11.17;10.37;;;12.00;99.90;;;;;;5078832;28;20555;-76
2021/10/25 12:17:44;;;;;;;10.80;9.90;;;12.00;99.90;;;;;;5081739;28;20203;-76
2021/10/25 12:20:14;;;;;;;10.97;10.27;;;12.00;99.90;;;;;;5073437;28;20701;-77
2021/10/25 12:22:43;;;;;;;10.50;9.80;;;12.10;99.90;;;;;;5079604;28;20204;-77
2021/10/25 12:25:10;;;;;;;10.53;9.83;;;12.20;99.90;;;;;;5079928;28;20481;-77
2021/10/25 12:27:39;;;;;;;10.83;10.13;;;12.30;99.90;;;;;;5080820;28;20192;-76
2021/10/25 12:30:13;;;;;;;10.60;9.90;;;12.40;99.90;;;;;;5078132;28;20251;-76
2021/10/25 12:32:51;;;;;;;10.70;10.10;;;12.50;99.90;;;;;;5084238;28;20203;-76
2021/10/25 12:35:28;;;;;;;10.90;10.20;;;12.60;99.90;;;;;;5082322;28;20226;-76
2021/10/25 12:37:59;;;;;;;9.80;9.20;;;12.70;99.90;;;;;;5071174;28;20248;-76
2021/10/25 12:40:27;;;;;;;10.17;9.57;;;12.90;99.90;;;;;;5076354;28;20205;-77
2021/10/25 12:43:01;;;;;;;10.80;10.20;;;13.00;99.90;;;;;;5080463;28;20188;-77
2021/10/25 12:45:31;;;;;;;10.47;9.87;;;13.10;99.90;;;;;;5080050;28;20194;-77
2021/10/25 12:48:00;;;;;;;10.73;10.10;;;13.30;99.90;;;;;;5079838;28;20567;-77
2021/10/25 12:50:32;;;;;;;3.47;3.17;;;13.50;99.90;;;;;;5079904;28;20201;-77
2021/10/25 12:52:59;;;;;;;3.30;3.00;;;13.60;99.90;;;;;;5074949;28;20204;-77
2021/10/25 12:55:26;;;;;;;3.40;3.10;;;13.80;99.90;;;;;;5074657;28;20248;-76
2021/10/25 12:57:55;;;;;;;3.67;3.30;;;14.00;99.90;;;;;;5081530;28;20573;-76
2021/10/25 13:00:24;;;;;;;4.27;3.97;;;14.10;99.90;;;;;;5077977;28;20600;-76
2021/10/25 13:02:55;;;;;;;9.37;8.77;;;14.20;99.90;;;;;;5071324;28;20191;-78
2021/10/25 13:05:24;;;;;;;8.83;8.23;;;14.10;99.90;;;;;;5078225;28;20289;-77
2021/10/25 13:07:52;;;;;;;11.07;10.27;;;14.20;99.90;;;;;;5078371;28;20195;-77
2021/10/25 13:10:21;;;;;;;8.63;8.13;;;14.30;99.90;;;;;;5079224;28;20267;-77
2021/10/25 13:12:49;;;;;;;9.27;8.70;;;14.40;99.90;;;;;;5079639;28;20197;-77
2021/10/25 13:15:17;;;;;;;8.13;7.63;;;14.40;99.90;;;;;;5082369;28;20281;-77
2021/10/25 13:17:43;;;;;;;9.30;8.70;;;14.40;99.90;;;;;;5077938;28;20219;-76
2021/10/25 13:20:17;;;;;;;10.10;9.50;;;14.50;99.90;;;;;;5078428;28;20231;-76
2021/10/25 13:22:44;;;;;;;9.80;9.20;;;14.50;99.90;;;;;;5083136;28;20198;-77
2021/10/25 13:25:10;;;;;;;9.60;9.03;;;14.50;99.90;;;;;;5081898;28;20616;-77
2021/10/25 13:27:39;;;;;;;9.27;8.77;;;14.50;99.90;;;;;;5083892;28;20206;-77
2021/10/25 13:30:08;;;;;;;10.30;9.70;;;14.60;99.90;;;;;;5081514;28;20210;-78
2021/10/25 13:32:35;;;;;;;9.80;9.20;;;14.70;99.90;;;;;;5077704;28;20210;-76
2021/10/25 13:35:02;;;;;;;10.60;9.90;;;14.70;99.90;;;;;;5081173;28;20203;-77
2021/10/25 13:37:30;;;;;;;10.10;9.40;;;14.70;99.90;;;;;;5083066;28;20218;-77
2021/10/25 13:39:57;;;;;;;10.40;9.70;;;14.80;99.90;;;;;;5085179;28;20206;-77
2021/10/25 13:42:24;;;;;;;10.60;9.90;;;14.80;99.90;;;;;;5081558;28;20191;-77
2021/10/25 13:44:51;;;;;;;5.40;4.90;;;14.90;99.90;;;;;;5079652;28;20257;-77
2021/10/25 13:47:19;;;;;;;6.37;5.97;;;14.90;99.90;;;;;;5083522;28;20252;-77
2021/10/25 13:49:45;;;;;;;6.57;6.07;;;14.70;99.90;;;;;;5081570;28;20276;-76
2021/10/25 13:52:13;;;;;;;6.23;5.83;;;14.60;99.90;;;;;;5083246;28;20679;-77
2021/10/25 13:54:41;;;;;;;3.97;3.67;;;14.60;99.90;;;;;;5083477;28;20672;-77
2021/10/25 13:57:08;;;;;;;4.47;4.17;;;14.60;99.90;;;;;;5071475;28;20230;-77
2021/10/25 13:59:36;;;;;;;6.80;6.40;;;14.50;99.90;;;;;;5068198;28;20253;-77
2021/10/25 14:02:08;;;;;;;10.37;9.70;;;14.50;99.90;;;;;;5084959;28;20204;-77
2021/10/25 14:04:38;;;;;;;10.93;10.23;;;14.60;99.90;;;;;;5063730;28;20249;-77
2021/10/25 14:07:07;;;;;;;10.00;9.40;;;14.70;99.90;;;;;;5071205;28;20601;-77
2021/10/25 14:09:35;;;;;;;10.37;9.77;;;14.70;99.90;;;;;;5079240;28;20217;-77
2021/10/25 14:12:04;;;;;;;11.13;10.43;;;14.70;99.90;;;;;;5077277;28;20606;-77
2021/10/25 14:14:32;;;;;;;9.93;9.33;;;14.70;99.90;;;;;;5081324;28;20195;-77